Time;durP1;ratioP1;P1;durP2;ratioP2;P2;SDS_P1;SDS_P2;PMS_P1;PMS_P2;Temp;Humidity;BMP_temperature;BMP_pressure;BME280_temperature;BME280_humidity;BME280_pressure;Samples;Min_cycle;Max_cycle;Signal;HPM_P1;HPM_P2
2022/01/29 00:01:44;;;;;;;26.87;16.03;;;5.90;99.90;;;;;;5069976;28;20239;-61
2022/01/29 00:04:16;;;;;;;26.37;15.43;;;5.80;99.90;;;;;;5070433;28;20239;-62
2022/01/29 00:06:44;;;;;;;27.87;16.07;;;5.80;99.90;;;;;;5069098;28;20239;-61
2022/01/29 00:09:14;;;;;;;28.93;16.00;;;5.80;99.90;;;;;;5066048;28;20241;-61
2022/01/29 00:11:43;;;;;;;31.17;17.70;;;5.90;99.90;;;;;;5070354;28;20266;-61
2022/01/29 00:14:12;;;;;;;33.63;17.53;;;5.90;99.90;;;;;;5073772;28;20318;-61
2022/01/29 00:16:41;;;;;;;27.10;17.20;;;5.90;99.90;;;;;;5073511;28;20595;-61
2022/01/29 00:19:09;;;;;;;32.63;17.90;;;5.90;99.90;;;;;;5074076;28;20239;-61
2022/01/29 00:21:39;;;;;;;30.07;17.03;;;5.90;99.90;;;;;;5073543;28;20242;-61
2022/01/29 00:24:07;;;;;;;28.20;18.20;;;5.90;99.90;;;;;;5074042;28;20266;-61
2022/01/29 00:26:35;;;;;;;30.73;18.50;;;5.90;99.90;;;;;;5072872;28;20235;-62
2022/01/29 00:29:09;;;;;;;31.63;19.40;;;6.00;99.90;;;;;;5073943;28;20287;-62
2022/01/29 00:31:37;;;;;;;32.43;19.73;;;6.00;99.90;;;;;;5073602;28;20651;-61
2022/01/29 00:34:05;;;;;;;31.87;19.77;;;5.90;99.90;;;;;;5073652;28;20591;-61
2022/01/29 00:36:34;;;;;;;32.77;20.23;;;5.90;99.90;;;;;;5073439;28;20239;-61
2022/01/29 00:39:04;;;;;;;29.60;19.97;;;6.00;99.90;;;;;;5073743;28;20242;-61
2022/01/29 00:41:32;;;;;;;31.93;19.83;;;6.00;99.90;;;;;;5073443;28;20576;-61
2022/01/29 00:44:01;;;;;;;33.57;21.40;;;5.90;99.90;;;;;;5073910;28;20237;-61
2022/01/29 00:46:29;;;;;;;33.17;21.90;;;5.90;99.90;;;;;;5072922;28;20245;-61
2022/01/29 00:48:57;;;;;;;36.30;21.77;;;5.90;99.90;;;;;;5053612;28;20587;-61
2022/01/29 00:51:25;;;;;;;36.43;22.43;;;5.90;99.90;;;;;;5066955;28;20751;-61
2022/01/29 00:53:53;;;;;;;38.30;22.57;;;5.80;99.90;;;;;;5073402;28;20354;-61
2022/01/29 00:56:23;;;;;;;34.50;22.83;;;5.80;99.90;;;;;;5073244;28;20250;-62
2022/01/29 00:58:51;;;;;;;35.87;23.77;;;5.90;99.90;;;;;;5073114;28;20318;-61
2022/01/29 01:01:19;;;;;;;39.20;23.30;;;5.90;99.90;;;;;;5073071;28;20223;-61
2022/01/29 01:03:47;;;;;;;37.73;23.17;;;5.90;99.90;;;;;;5072893;28;20239;-61
2022/01/29 01:06:15;;;;;;;34.03;22.10;;;5.90;99.90;;;;;;5072780;28;20245;-61
2022/01/29 01:08:43;;;;;;;36.93;23.83;;;5.90;99.90;;;;;;5072952;28;20253;-61
2022/01/29 01:11:12;;;;;;;38.67;25.63;;;5.90;99.90;;;;;;5072800;28;20233;-61
2022/01/29 01:13:41;;;;;;;41.17;26.47;;;5.90;99.90;;;;;;5072913;28;20353;-61
2022/01/29 01:16:09;;;;;;;36.93;26.23;;;6.00;99.90;;;;;;5072896;28;20239;-61
2022/01/29 01:18:37;;;;;;;40.10;26.40;;;5.90;99.90;;;;;;5072470;28;20695;-61
2022/01/29 01:21:05;;;;;;;38.17;24.93;;;6.00;99.90;;;;;;5072828;28;20223;-61
2022/01/29 01:23:33;;;;;;;36.93;25.63;;;6.00;99.90;;;;;;5072332;28;20699;-62
2022/01/29 01:26:03;;;;;;;42.07;27.43;;;6.00;99.90;;;;;;5071945;28;20235;-62
2022/01/29 01:28:31;;;;;;;44.53;28.97;;;6.00;99.90;;;;;;5072612;28;20599;-61
2022/01/29 01:31:01;;;;;;;40.03;26.90;;;6.00;99.90;;;;;;5073232;28;20239;-61
2022/01/29 01:33:29;;;;;;;42.40;28.17;;;6.00;99.90;;;;;;5072628;28;20314;-61
2022/01/29 01:36:01;;;;;;;41.17;27.27;;;6.00;99.90;;;;;;5072435;28;20223;-61
2022/01/29 01:38:36;;;;;;;43.57;28.07;;;6.00;99.90;;;;;;5072449;28;20770;-61
2022/01/29 01:41:08;;;;;;;42.50;29.27;;;6.00;99.90;;;;;;5072277;28;20309;-61
2022/01/29 01:43:36;;;;;;;43.27;28.87;;;6.00;99.90;;;;;;5072392;28;20273;-61
2022/01/29 01:46:06;;;;;;;43.40;28.67;;;6.00;99.90;;;;;;5072235;28;20631;-61
2022/01/29 01:48:34;;;;;;;44.03;30.17;;;6.00;99.90;;;;;;5072159;28;20356;-61
2022/01/29 01:51:02;;;;;;;43.43;28.77;;;6.00;99.90;;;;;;5072107;28;20238;-61
2022/01/29 01:53:31;;;;;;;42.30;29.50;;;6.00;99.90;;;;;;5072460;28;20284;-61
2022/01/29 01:55:59;;;;;;;44.50;30.63;;;6.00;99.90;;;;;;5072528;28;20231;-61
2022/01/29 01:58:27;;;;;;;43.33;29.57;;;6.00;99.90;;;;;;5072057;28;20762;-61
2022/01/29 02:00:55;;;;;;;48.00;29.27;;;6.00;99.90;;;;;;5071740;28;20235;-61
2022/01/29 02:03:25;;;;;;;50.27;30.10;;;6.00;99.90;;;;;;5071837;28;20317;-61
2022/01/29 02:05:53;;;;;;;49.37;32.17;;;6.00;99.90;;;;;;5071227;28;20325;-61
2022/01/29 02:08:21;;;;;;;48.73;31.03;;;6.00;99.90;;;;;;5071612;28;20263;-61
2022/01/29 02:10:50;;;;;;;47.50;31.10;;;6.00;99.90;;;;;;5071869;28;20230;-61
2022/01/29 02:13:18;;;;;;;51.57;30.73;;;6.00;99.90;;;;;;5071914;28;20245;-61
2022/01/29 02:15:47;;;;;;;50.47;31.00;;;6.10;99.90;;;;;;5071655;28;20243;-61
2022/01/29 02:18:15;;;;;;;48.33;30.33;;;6.00;99.90;;;;;;5071533;28;20714;-61
2022/01/29 02:20:46;;;;;;;47.60;32.27;;;6.20;99.90;;;;;;5071370;28;20607;-62
2022/01/29 02:23:17;;;;;;;49.90;31.07;;;6.10;99.90;;;;;;5071692;28;20721;-61
2022/01/29 02:25:47;;;;;;;49.43;31.43;;;6.10;99.90;;;;;;5071236;28;20242;-61
2022/01/29 02:28:16;;;;;;;53.77;32.47;;;6.10;99.90;;;;;;5071450;28;20339;-62
2022/01/29 02:30:47;;;;;;;50.30;30.93;;;6.10;99.90;;;;;;5071199;28;20719;-61
2022/01/29 02:33:17;;;;;;;47.77;30.20;;;6.10;99.90;;;;;;5071325;28;20235;-61
2022/01/29 02:35:47;;;;;;;52.03;33.50;;;6.10;99.90;;;;;;5071040;28;20303;-61
2022/01/29 02:38:20;;;;;;;50.53;30.83;;;6.10;99.90;;;;;;5071224;28;20321;-61
2022/01/29 02:40:50;;;;;;;52.03;30.13;;;6.10;99.90;;;;;;5071262;28;20276;-61
2022/01/29 02:43:22;;;;;;;48.00;30.17;;;6.10;99.90;;;;;;5071083;28;20322;-62
2022/01/29 02:45:53;;;;;;;50.20;30.37;;;6.10;99.90;;;;;;5070849;28;20676;-61
2022/01/29 02:48:23;;;;;;;50.53;31.03;;;6.20;99.90;;;;;;5071027;28;20614;-61
2022/01/29 02:50:52;;;;;;;50.53;30.43;;;6.20;99.90;;;;;;5070999;28;20598;-61
2022/01/29 02:53:21;;;;;;;49.87;31.30;;;6.20;99.90;;;;;;5071225;28;20288;-61
2022/01/29 02:55:49;;;;;;;49.93;30.07;;;6.20;99.90;;;;;;5070940;28;20231;-61
2022/01/29 02:58:17;;;;;;;48.80;30.97;;;6.20;99.90;;;;;;5070692;28;20245;-61
2022/01/29 03:00:45;;;;;;;48.63;30.13;;;6.20;99.90;;;;;;5070779;28;20674;-61
2022/01/29 03:03:14;;;;;;;49.37;30.37;;;6.20;99.90;;;;;;5070601;28;20242;-61
2022/01/29 03:05:42;;;;;;;53.10;31.63;;;6.20;99.90;;;;;;5070111;28;20234;-62
2022/01/29 03:08:11;;;;;;;52.97;31.13;;;6.30;99.90;;;;;;5070634;28;20618;-61
2022/01/29 03:10:41;;;;;;;52.80;32.37;;;6.30;99.90;;;;;;5070864;28;20232;-61
2022/01/29 03:13:09;;;;;;;52.50;32.40;;;6.30;99.90;;;;;;5070629;28;20577;-61
2022/01/29 03:15:37;;;;;;;47.27;30.07;;;6.30;99.90;;;;;;5070511;28;20273;-61
2022/01/29 03:18:05;;;;;;;49.03;30.90;;;6.30;99.90;;;;;;5070854;28;20239;-61
2022/01/29 03:20:33;;;;;;;49.73;29.87;;;6.30;99.90;;;;;;5070593;28;20266;-61
2022/01/29 03:23:02;;;;;;;53.40;29.73;;;6.30;99.90;;;;;;5071005;28;20257;-61
2022/01/29 03:25:30;;;;;;;47.43;31.27;;;6.30;99.90;;;;;;5070251;28;20247;-62
2022/01/29 03:27:59;;;;;;;45.00;29.07;;;6.30;99.90;;;;;;5063124;28;20234;-61
2022/01/29 03:30:28;;;;;;;44.90;28.07;;;6.30;99.90;;;;;;5070873;28;20312;-61
2022/01/29 03:32:56;;;;;;;48.20;31.93;;;6.30;99.90;;;;;;5070633;28;20222;-62
2022/01/29 03:35:24;;;;;;;45.87;28.47;;;6.40;99.90;;;;;;5070784;28;20318;-61
2022/01/29 03:37:52;;;;;;;47.20;28.27;;;6.40;99.90;;;;;;5070540;28;20331;-61
2022/01/29 03:40:20;;;;;;;46.73;28.17;;;6.40;99.90;;;;;;5070824;28;20255;-61
2022/01/29 03:42:59;;;;;;;46.03;29.47;;;6.40;99.90;;;;;;5070418;28;20239;-62
2022/01/29 03:45:29;;;;;;;43.80;27.57;;;6.40;99.90;;;;;;5070035;28;20314;-62
2022/01/29 03:47:57;;;;;;;43.67;28.43;;;6.40;99.90;;;;;;5071833;28;20231;-61
2022/01/29 03:50:25;;;;;;;44.60;27.80;;;6.40;99.90;;;;;;5074510;28;20266;-61
2022/01/29 03:52:53;;;;;;;44.87;26.20;;;6.40;99.90;;;;;;5074695;28;20238;-61
2022/01/29 03:55:22;;;;;;;40.30;27.03;;;6.40;99.90;;;;;;5074072;28;20691;-62
2022/01/29 03:57:50;;;;;;;43.23;27.10;;;6.40;99.90;;;;;;5074357;28;20703;-61
2022/01/29 04:00:18;;;;;;;42.93;27.27;;;6.40;99.90;;;;;;5074485;28;20262;-62
2022/01/29 04:02:47;;;;;;;40.80;26.70;;;6.40;99.90;;;;;;5074221;28;20288;-61
2022/01/29 04:05:16;;;;;;;37.87;25.37;;;6.40;99.90;;;;;;5074111;28;20330;-61
2022/01/29 04:07:44;;;;;;;45.97;28.13;;;6.50;99.90;;;;;;5073691;28;20231;-61
2022/01/29 04:10:13;;;;;;;49.60;30.53;;;6.50;99.90;;;;;;5074185;28;20231;-61
2022/01/29 04:12:45;;;;;;;46.27;29.50;;;6.50;99.90;;;;;;5073724;28;20322;-61
2022/01/29 04:15:13;;;;;;;46.10;28.87;;;6.50;99.90;;;;;;5074020;28;20258;-61
2022/01/29 04:17:42;;;;;;;47.00;29.93;;;6.50;99.90;;;;;;5073768;28;20598;-61
2022/01/29 04:20:12;;;;;;;45.30;29.47;;;6.50;99.90;;;;;;5074101;28;20251;-61
2022/01/29 04:22:40;;;;;;;47.53;30.80;;;6.50;99.90;;;;;;5073584;28;20762;-61
2022/01/29 04:25:09;;;;;;;45.40;28.57;;;6.60;99.90;;;;;;5073760;28;20695;-61
2022/01/29 04:27:40;;;;;;;45.03;30.03;;;6.60;99.90;;;;;;5073089;28;20235;-62
2022/01/29 04:30:13;;;;;;;44.57;28.80;;;6.60;99.90;;;;;;5073902;28;20333;-61
2022/01/29 04:33:03;;;;;;;50.33;30.83;;;6.60;99.90;;;;;;5073515;28;20239;-61
2022/01/29 04:35:33;;;;;;;48.70;30.80;;;6.60;99.90;;;;;;5073452;28;20243;-61
2022/01/29 04:38:01;;;;;;;42.10;29.33;;;6.70;99.90;;;;;;5073788;28;20242;-61
2022/01/29 04:40:30;;;;;;;49.30;31.40;;;6.70;99.90;;;;;;5073687;28;20227;-61
2022/01/29 04:42:58;;;;;;;44.20;29.10;;;6.70;99.90;;;;;;5073635;28;20269;-61
2022/01/29 04:45:26;;;;;;;44.87;28.93;;;6.70;99.90;;;;;;5073082;28;20227;-61
2022/01/29 04:47:54;;;;;;;45.27;28.47;;;6.60;99.90;;;;;;5073396;28;20763;-61
2022/01/29 04:50:22;;;;;;;49.00;29.27;;;6.70;99.90;;;;;;5073550;28;20235;-62
2022/01/29 04:52:51;;;;;;;45.37;29.23;;;6.70;99.90;;;;;;5073272;28;20270;-61
2022/01/29 04:55:19;;;;;;;44.50;29.17;;;6.70;99.90;;;;;;5073187;28;20703;-61
2022/01/29 04:57:48;;;;;;;42.77;28.37;;;6.80;99.90;;;;;;5073075;28;20227;-61
2022/01/29 05:00:20;;;;;;;47.10;28.50;;;6.80;99.90;;;;;;5071993;28;20242;-61
2022/01/29 05:02:49;;;;;;;43.63;28.07;;;6.80;99.90;;;;;;5072855;28;20659;-61
2022/01/29 05:05:17;;;;;;;47.10;28.50;;;6.80;99.90;;;;;;5072958;28;20718;-61
2022/01/29 05:07:46;;;;;;;41.63;27.47;;;6.80;99.90;;;;;;5072633;28;20269;-61
2022/01/29 05:10:16;;;;;;;41.67;27.10;;;6.90;99.90;;;;;;5073064;28;20243;-61
2022/01/29 05:12:50;;;;;;;39.43;26.73;;;6.90;99.90;;;;;;5072964;28;20242;-61
2022/01/29 05:15:25;;;;;;;40.63;25.73;;;6.80;99.90;;;;;;5072922;28;20254;-61
2022/01/29 05:29:13;;;;;;;35.90;22.17;;;6.90;99.90;;;;;;5050420;28;20293;-61
2022/01/29 05:31:41;;;;;;;33.47;22.43;;;6.90;99.90;;;;;;5043517;28;20243;-61
2022/01/29 05:34:09;;;;;;;34.47;23.03;;;7.00;99.90;;;;;;5053485;28;20238;-61
2022/01/29 05:36:37;;;;;;;31.50;21.87;;;7.00;99.90;;;;;;5072153;28;20239;-61
2022/01/29 05:39:05;;;;;;;30.23;20.30;;;7.00;99.90;;;;;;5072619;28;20322;-61
2022/01/29 05:41:35;;;;;;;33.47;21.27;;;7.00;99.90;;;;;;5071989;28;20350;-61
2022/01/29 05:44:03;;;;;;;32.13;21.90;;;7.10;99.90;;;;;;5051851;28;20260;-61
2022/01/29 05:46:32;;;;;;;31.87;21.87;;;7.10;99.90;;;;;;5059929;28;20239;-61
2022/01/29 05:49:00;;;;;;;32.80;21.37;;;7.10;99.90;;;;;;5068707;28;20314;-62
2022/01/29 05:51:30;;;;;;;29.63;20.80;;;7.10;99.90;;;;;;5072237;28;20235;-61
2022/01/29 05:53:58;;;;;;;35.00;22.17;;;7.10;99.90;;;;;;5034324;28;20232;-61
2022/01/29 05:56:26;;;;;;;30.87;21.90;;;7.10;99.90;;;;;;5056143;28;20254;-61
2022/01/29 05:58:56;;;;;;;36.10;21.47;;;7.20;99.90;;;;;;5071599;28;20716;-61
2022/01/29 06:01:25;;;;;;;34.90;22.67;;;7.20;99.90;;;;;;5072138;28;20239;-61
2022/01/29 06:03:53;;;;;;;35.90;22.00;;;7.20;99.90;;;;;;5071306;28;20630;-61
2022/01/29 06:06:21;;;;;;;35.53;22.73;;;7.20;99.90;;;;;;5052387;28;20318;-61
2022/01/29 06:08:50;;;;;;;38.93;24.00;;;7.20;99.90;;;;;;5070924;28;20231;-61
2022/01/29 06:11:18;;;;;;;36.97;23.67;;;7.20;99.90;;;;;;5071334;28;20235;-61
2022/01/29 06:13:46;;;;;;;36.73;24.23;;;7.20;99.90;;;;;;5061163;28;20330;-61
2022/01/29 06:16:15;;;;;;;41.80;25.50;;;7.30;99.90;;;;;;5048338;28;20314;-61
2022/01/29 06:18:43;;;;;;;36.33;24.50;;;7.30;99.90;;;;;;5051367;28;20262;-61
2022/01/29 06:21:13;;;;;;;41.90;26.93;;;7.30;99.90;;;;;;5052212;28;20231;-63
2022/01/29 06:23:43;;;;;;;41.67;26.47;;;7.40;99.90;;;;;;5054810;28;20322;-61
2022/01/29 06:26:13;;;;;;;42.17;26.80;;;7.40;99.90;;;;;;5060592;28;20719;-61
2022/01/29 06:28:41;;;;;;;41.83;27.23;;;7.40;99.90;;;;;;5051287;28;20259;-61
2022/01/29 06:31:10;;;;;;;42.87;27.53;;;7.40;99.90;;;;;;5047321;28;20239;-61
2022/01/29 06:33:39;;;;;;;42.00;26.37;;;7.40;99.90;;;;;;5048835;28;20235;-61
2022/01/29 06:36:08;;;;;;;44.73;27.37;;;7.40;99.90;;;;;;5054860;28;20266;-61
2022/01/29 06:38:36;;;;;;;43.17;27.20;;;7.50;99.90;;;;;;5059263;28;20231;-61
2022/01/29 06:41:04;;;;;;;41.93;25.63;;;7.40;99.90;;;;;;5050852;28;20762;-60
2022/01/29 06:43:32;;;;;;;45.37;26.63;;;7.50;99.90;;;;;;5067214;28;20236;-62
2022/01/29 06:46:01;;;;;;;43.77;26.20;;;7.50;99.90;;;;;;5055094;28;20235;-61
2022/01/29 06:48:29;;;;;;;41.83;26.10;;;7.50;99.90;;;;;;5071939;28;20734;-61
2022/01/29 06:50:59;;;;;;;42.93;26.53;;;7.50;99.90;;;;;;5070460;28;20248;-61
2022/01/29 06:53:27;;;;;;;41.40;25.30;;;7.50;99.90;;;;;;5059318;28;20228;-61
2022/01/29 06:55:55;;;;;;;40.63;25.40;;;7.50;99.90;;;;;;5051089;28;20618;-61
2022/01/29 06:58:23;;;;;;;36.00;24.07;;;7.50;99.90;;;;;;5050790;28;20235;-61
2022/01/29 07:01:11;;;;;;;38.73;24.93;;;7.50;99.90;;;;;;5053785;28;20309;-62
2022/01/29 07:03:39;;;;;;;38.20;23.90;;;7.60;99.90;;;;;;5051411;28;20228;-61
2022/01/29 07:06:09;;;;;;;36.47;23.30;;;7.60;99.90;;;;;;5055311;28;20244;-61
2022/01/29 07:08:38;;;;;;;34.27;22.83;;;7.60;99.90;;;;;;5050297;28;20239;-61
2022/01/29 07:11:06;;;;;;;32.43;21.43;;;7.60;99.90;;;;;;5054343;28;20235;-61
2022/01/29 07:13:35;;;;;;;35.00;22.60;;;7.60;99.90;;;;;;5063302;28;20227;-61
2022/01/29 07:16:03;;;;;;;31.93;21.67;;;7.70;99.90;;;;;;5050680;28;20322;-61
2022/01/29 07:18:31;;;;;;;30.07;21.10;;;7.70;99.90;;;;;;5051059;28;20235;-61
2022/01/29 07:20:59;;;;;;;30.67;20.77;;;7.70;99.90;;;;;;5053632;28;20312;-61
2022/01/29 07:23:35;;;;;;;30.10;19.70;;;7.70;99.90;;;;;;5060909;28;20324;-61
2022/01/29 07:26:03;;;;;;;31.03;19.23;;;7.60;99.90;;;;;;5055693;28;20711;-62
2022/01/29 07:28:32;;;;;;;26.70;18.83;;;7.60;99.90;;;;;;5057293;28;20603;-61
2022/01/29 07:31:00;;;;;;;29.10;18.90;;;7.70;99.90;;;;;;5053997;28;20587;-61
2022/01/29 07:33:29;;;;;;;25.70;18.03;;;7.60;99.90;;;;;;5053492;28;20662;-61
2022/01/29 07:35:57;;;;;;;23.80;17.70;;;7.70;99.90;;;;;;5069636;28;20258;-62
2022/01/29 07:38:26;;;;;;;25.13;17.83;;;7.70;99.90;;;;;;5070250;28;20235;-61
2022/01/29 07:40:55;;;;;;;23.33;16.80;;;7.60;99.90;;;;;;5060714;28;20312;-61
2022/01/29 07:43:23;;;;;;;20.50;15.93;;;7.70;99.90;;;;;;5069648;28;20246;-61
2022/01/29 07:45:52;;;;;;;20.50;15.47;;;7.70;99.90;;;;;;5069575;28;20261;-61
2022/01/29 07:48:20;;;;;;;22.60;16.07;;;7.70;99.90;;;;;;5070116;28;20235;-61
2022/01/29 07:50:49;;;;;;;21.10;14.97;;;7.70;99.90;;;;;;5059281;28;20317;-61
2022/01/29 07:53:17;;;;;;;21.97;15.70;;;7.70;99.90;;;;;;5070407;28;20223;-61
2022/01/29 07:55:45;;;;;;;24.53;16.13;;;7.80;99.90;;;;;;5070331;28;20292;-61
2022/01/29 07:58:14;;;;;;;19.60;14.97;;;7.80;99.90;;;;;;5069640;28;20235;-61
2022/01/29 08:00:42;;;;;;;19.47;14.87;;;7.80;99.90;;;;;;5063073;28;20670;-61
2022/01/29 08:03:11;;;;;;;20.97;15.57;;;7.80;99.90;;;;;;5067679;28;20237;-61
2022/01/29 08:05:39;;;;;;;18.97;14.33;;;7.80;99.90;;;;;;5070053;28;20262;-61
2022/01/29 08:08:15;;;;;;;18.37;13.70;;;7.80;99.90;;;;;;5070291;28;20255;-61
2022/01/29 08:10:43;;;;;;;18.70;14.00;;;7.80;99.90;;;;;;5070181;28;20244;-61
2022/01/29 08:13:11;;;;;;;18.87;14.13;;;7.80;99.90;;;;;;5070420;28;20230;-61
2022/01/29 08:15:40;;;;;;;18.30;13.00;;;7.80;99.90;;;;;;5069886;28;20333;-61
2022/01/29 08:18:09;;;;;;;18.40;13.80;;;7.80;99.90;;;;;;5069552;28;20939;-61
2022/01/29 08:20:38;;;;;;;19.97;14.20;;;7.90;99.90;;;;;;5062586;28;20255;-62
2022/01/29 08:23:08;;;;;;;19.27;14.27;;;7.90;99.90;;;;;;5065002;28;20228;-62
2022/01/29 08:25:37;;;;;;;15.67;12.53;;;7.90;99.90;;;;;;5064134;28;20258;-61
2022/01/29 08:28:05;;;;;;;18.50;13.13;;;7.90;99.90;;;;;;5065299;28;20263;-62
2022/01/29 08:30:34;;;;;;;16.90;13.27;;;7.90;99.90;;;;;;5064707;28;20227;-62
2022/01/29 08:33:05;;;;;;;15.47;12.27;;;7.90;99.90;;;;;;5065413;28;20235;-61
2022/01/29 08:35:34;;;;;;;18.10;13.30;;;7.90;99.90;;;;;;5067559;28;20239;-62
2022/01/29 08:38:02;;;;;;;15.50;12.33;;;7.90;99.90;;;;;;5069417;28;20250;-62
2022/01/29 08:40:30;;;;;;;15.60;12.43;;;8.00;99.90;;;;;;5068799;28;20242;-61
2022/01/29 08:42:58;;;;;;;15.87;12.53;;;7.90;99.90;;;;;;5069056;28;20568;-61
2022/01/29 08:45:26;;;;;;;16.70;12.60;;;8.00;99.90;;;;;;5067076;28;20291;-61
2022/01/29 08:47:54;;;;;;;13.87;11.77;;;8.00;99.90;;;;;;5068729;28;20235;-62
2022/01/29 08:50:24;;;;;;;14.47;11.27;;;8.00;99.90;;;;;;5068508;28;20242;-62
2022/01/29 08:52:52;;;;;;;13.67;11.63;;;8.00;99.90;;;;;;5068787;28;20243;-61
2022/01/29 08:55:20;;;;;;;16.47;10.53;;;8.10;99.90;;;;;;5067455;28;20661;-62
2022/01/29 08:57:49;;;;;;;14.67;11.40;;;8.00;99.90;;;;;;5068197;28;20253;-61
2022/01/29 09:00:17;;;;;;;14.27;11.90;;;8.00;99.90;;;;;;5068757;28;20239;-62
2022/01/29 09:02:45;;;;;;;13.70;11.13;;;8.00;99.90;;;;;;5068740;28;20273;-61
2022/01/29 09:05:14;;;;;;;13.97;11.30;;;8.00;99.90;;;;;;5068010;28;20223;-62
2022/01/29 09:07:43;;;;;;;14.20;10.40;;;8.10;99.90;;;;;;5067999;28;20334;-62
2022/01/29 09:10:12;;;;;;;14.87;11.13;;;8.10;99.90;;;;;;5068054;28;20234;-61
2022/01/29 09:12:41;;;;;;;13.20;11.03;;;8.00;99.90;;;;;;5067952;28;20266;-61
2022/01/29 09:15:10;;;;;;;14.57;10.93;;;8.10;99.90;;;;;;5067512;28;20321;-62
2022/01/29 09:17:39;;;;;;;14.10;10.50;;;8.20;99.90;;;;;;5067323;28;20714;-61
2022/01/29 09:20:09;;;;;;;13.60;11.30;;;8.10;99.90;;;;;;5067349;28;20704;-61
2022/01/29 09:22:38;;;;;;;14.13;11.50;;;8.10;99.90;;;;;;5067244;28;20246;-62
2022/01/29 09:25:08;;;;;;;13.73;10.30;;;8.20;99.90;;;;;;5067753;28;20257;-61
2022/01/29 09:27:36;;;;;;;13.27;10.23;;;8.20;99.90;;;;;;5066838;28;20242;-61
2022/01/29 09:30:06;;;;;;;13.53;11.43;;;8.20;99.90;;;;;;5067576;28;20771;-61
2022/01/29 09:32:34;;;;;;;13.43;10.23;;;8.20;99.90;;;;;;5067245;28;20234;-61
2022/01/29 09:35:02;;;;;;;13.30;10.07;;;8.20;99.90;;;;;;5067810;28;20323;-61
2022/01/29 09:37:30;;;;;;;13.67;9.63;;;8.20;99.90;;;;;;5066785;28;20246;-61
2022/01/29 09:39:58;;;;;;;13.17;10.57;;;8.20;99.90;;;;;;5066981;28;20292;-61
2022/01/29 09:42:28;;;;;;;12.80;10.23;;;8.30;99.90;;;;;;5067554;28;20597;-62
2022/01/29 09:44:56;;;;;;;14.80;10.93;;;8.20;99.90;;;;;;5067141;28;20307;-62
2022/01/29 09:47:25;;;;;;;14.53;10.83;;;8.30;99.90;;;;;;5066087;28;20231;-62
2022/01/29 09:49:54;;;;;;;14.90;10.03;;;8.20;99.90;;;;;;5067294;28;20239;-62
2022/01/29 09:52:22;;;;;;;11.57;9.40;;;8.20;99.90;;;;;;5067525;28;20239;-61
2022/01/29 09:54:58;;;;;;;13.17;9.97;;;8.30;99.90;;;;;;5067636;28;20239;-61
2022/01/29 09:57:28;;;;;;;12.77;9.60;;;8.30;99.90;;;;;;5066049;28;20239;-61
2022/01/29 09:59:56;;;;;;;15.23;9.97;;;8.30;99.90;;;;;;5066721;28;20243;-62
2022/01/29 10:02:24;;;;;;;14.13;9.50;;;8.30;99.90;;;;;;5066793;28;20263;-62
2022/01/29 10:04:54;;;;;;;13.70;9.30;;;8.30;99.90;;;;;;5054877;28;20731;-61
2022/01/29 10:07:25;;;;;;;12.00;8.50;;;8.30;99.90;;;;;;5053147;28;20252;-61
2022/01/29 10:09:54;;;;;;;11.43;9.23;;;8.30;99.90;;;;;;5054377;28;20317;-61
2022/01/29 10:12:26;;;;;;;14.40;9.40;;;8.40;99.90;;;;;;5053213;28;20955;-61
2022/01/29 10:14:58;;;;;;;11.87;8.50;;;8.40;99.90;;;;;;5057724;28;20691;-61
2022/01/29 10:17:47;;;;;;;13.97;9.33;;;8.40;99.90;;;;;;5056652;28;20309;-61
2022/01/29 10:20:22;;;;;;;14.27;9.00;;;8.40;99.90;;;;;;5053048;28;20267;-61
2022/01/29 10:22:52;;;;;;;11.40;8.47;;;8.40;99.90;;;;;;5054383;28;20242;-61
2022/01/29 10:25:22;;;;;;;11.30;8.20;;;8.40;99.90;;;;;;5052755;28;20339;-61
2022/01/29 10:28:11;;;;;;;11.47;8.63;;;8.40;99.90;;;;;;5058101;28;20243;-61
2022/01/29 10:30:58;;;;;;;9.73;8.20;;;8.40;99.90;;;;;;5052229;28;20249;-61
2022/01/29 10:33:28;;;;;;;11.13;8.87;;;8.40;99.90;;;;;;5061009;28;20322;-61
2022/01/29 10:35:58;;;;;;;14.23;8.93;;;8.40;99.90;;;;;;5059750;28;20246;-61
2022/01/29 10:38:28;;;;;;;14.27;8.90;;;8.40;99.90;;;;;;5063650;28;20237;-61
2022/01/29 10:41:21;;;;;;;13.63;9.43;;;8.50;99.90;;;;;;5071578;28;20296;-61
2022/01/29 10:44:09;;;;;;;14.90;9.13;;;8.50;99.90;;;;;;5070909;28;20318;-61
2022/01/29 10:46:41;;;;;;;12.70;9.07;;;8.50;99.90;;;;;;5070219;28;20262;-61
2022/01/29 10:49:17;;;;;;;12.67;9.60;;;8.60;99.90;;;;;;5071116;28;20353;-61
2022/01/29 10:51:56;;;;;;;14.57;10.27;;;8.60;99.90;;;;;;5070930;28;20235;-61
2022/01/29 10:54:25;;;;;;;12.57;10.07;;;8.50;99.90;;;;;;5071221;28;20242;-61
2022/01/29 10:56:57;;;;;;;15.57;10.53;;;8.60;99.90;;;;;;5070366;28;20235;-61
2022/01/29 10:59:27;;;;;;;15.10;10.97;;;8.60;99.90;;;;;;5071053;28;20239;-61
2022/01/29 11:01:58;;;;;;;13.80;10.67;;;8.50;99.90;;;;;;5070593;28;20235;-61
2022/01/29 11:04:28;;;;;;;12.90;9.57;;;8.60;99.90;;;;;;5071029;28;20255;-61
2022/01/29 11:07:00;;;;;;;17.90;11.67;;;8.60;99.90;;;;;;5070344;28;20571;-61
2022/01/29 11:09:29;;;;;;;14.63;10.73;;;8.60;99.90;;;;;;5070775;28;20326;-61
2022/01/29 11:11:59;;;;;;;18.30;11.30;;;8.60;99.90;;;;;;5070822;28;20235;-61
2022/01/29 11:14:31;;;;;;;15.23;10.53;;;8.60;99.90;;;;;;5070668;28;20235;-61
2022/01/29 11:17:02;;;;;;;15.13;11.27;;;8.60;99.90;;;;;;5070950;28;20300;-61
2022/01/29 11:19:31;;;;;;;15.50;10.90;;;8.60;99.90;;;;;;5070915;28;20249;-61
2022/01/29 11:22:07;;;;;;;15.07;10.77;;;8.60;99.90;;;;;;5070788;28;20696;-61
2022/01/29 11:24:37;;;;;;;18.03;10.47;;;8.60;99.90;;;;;;5070339;28;20258;-61
2022/01/29 11:27:22;;;;;;;12.60;8.93;;;8.70;99.90;;;;;;5070364;28;20257;-61
2022/01/29 11:30:01;;;;;;;11.67;9.53;;;8.80;99.90;;;;;;5070673;28;20246;-61
2022/01/29 11:32:34;;;;;;;13.60;9.37;;;8.80;99.90;;;;;;5066588;28;20323;-61
2022/01/29 11:35:09;;;;;;;13.57;8.87;;;8.80;99.90;;;;;;5070326;28;20318;-61
2022/01/29 11:37:40;;;;;;;12.27;9.40;;;8.80;99.90;;;;;;5070333;28;20672;-61
2022/01/29 11:40:14;;;;;;;12.43;8.93;;;8.80;99.90;;;;;;5070689;28;20246;-61
2022/01/29 11:43:22;;;;;;;11.30;8.73;;;8.80;99.90;;;;;;5068980;28;20288;-61
2022/01/29 11:45:54;;;;;;;12.90;9.30;;;8.80;99.90;;;;;;5070005;28;20261;-61
2022/01/29 11:48:51;;;;;;;12.33;8.57;;;8.90;99.90;;;;;;5069834;28;20249;-61
2022/01/29 11:51:46;;;;;;;11.33;7.90;;;8.90;99.90;;;;;;5069868;28;20286;-61
2022/01/29 11:54:23;;;;;;;9.03;7.47;;;8.90;99.90;;;;;;5070417;28;20258;-61
2022/01/29 11:57:10;;;;;;;10.47;7.90;;;9.00;99.90;;;;;;5070317;28;20334;-61
2022/01/29 11:59:40;;;;;;;10.80;8.07;;;8.90;99.90;;;;;;5070073;28;20297;-61
2022/01/29 12:02:37;;;;;;;8.53;6.43;;;9.00;99.90;;;;;;5070082;28;20238;-61
2022/01/29 12:05:30;;;;;;;11.37;7.30;;;9.00;99.90;;;;;;5069001;28;20579;-61
2022/01/29 12:08:14;;;;;;;11.97;7.90;;;9.00;99.90;;;;;;5070192;28;20235;-61
2022/01/29 12:10:52;;;;;;;8.80;6.90;;;9.10;99.90;;;;;;5073982;28;20242;-61
2022/01/29 12:13:21;;;;;;;7.27;6.50;;;9.00;99.90;;;;;;5074011;28;20243;-63
2022/01/29 12:15:56;;;;;;;8.20;6.43;;;9.20;99.90;;;;;;5074188;28;20235;-63
2022/01/29 12:18:26;;;;;;;8.80;6.80;;;9.20;99.90;;;;;;5073708;28;20249;-63
2022/01/29 12:20:56;;;;;;;8.63;6.70;;;9.10;99.90;;;;;;5058582;28;20332;-61
2022/01/29 12:23:24;;;;;;;10.13;6.53;;;9.30;99.90;;;;;;5068186;28;20243;-58
2022/01/29 12:25:54;;;;;;;8.03;6.57;;;9.40;99.90;;;;;;5053710;28;20262;-60
2022/01/29 12:28:23;;;;;;;9.37;5.80;;;9.40;99.90;;;;;;5053978;28;20314;-61
2022/01/29 12:30:51;;;;;;;7.97;5.77;;;9.40;99.90;;;;;;5059810;28;20235;-61
2022/01/29 12:33:24;;;;;;;8.20;5.50;;;9.40;99.90;;;;;;5064154;28;20248;-58
2022/01/29 12:35:54;;;;;;;9.57;5.80;;;9.40;99.90;;;;;;5070950;28;20322;-58
2022/01/29 12:38:29;;;;;;;9.30;5.47;;;9.40;99.90;;;;;;5067381;28;20263;-59
2022/01/29 12:41:03;;;;;;;7.90;6.10;;;9.30;99.90;;;;;;5072663;28;20472;-61
2022/01/29 12:43:35;;;;;;;7.93;5.67;;;9.40;99.90;;;;;;5060065;28;20297;-63
2022/01/29 12:46:13;;;;;;;10.30;5.40;;;9.50;99.90;;;;;;5067627;28;20681;-62
2022/01/29 12:48:58;;;;;;;6.97;4.10;;;9.60;99.90;;;;;;5052395;28;20240;-63
2022/01/29 12:51:26;;;;;;;7.27;3.97;;;9.70;99.90;;;;;;5052878;28;20318;-62
2022/01/29 12:54:00;;;;;;;7.80;3.97;;;9.70;99.90;;;;;;5052382;28;20707;-62
2022/01/29 12:56:33;;;;;;;6.70;3.70;;;9.80;99.90;;;;;;5044035;28;20263;-62
2022/01/29 12:59:03;;;;;;;8.13;4.93;;;9.90;99.90;;;;;;5053152;28;20323;-63
2022/01/29 13:01:32;;;;;;;12.17;6.90;;;9.80;99.90;;;;;;5056488;28;20259;-60
2022/01/29 13:04:02;;;;;;;28.17;15.50;;;9.80;99.90;;;;;;5069336;28;20242;-62
2022/01/29 13:06:30;;;;;;;15.87;6.60;;;9.80;99.90;;;;;;5056173;28;20236;-62
2022/01/29 13:09:14;;;;;;;10.37;4.80;;;9.90;99.90;;;;;;5072555;28;20317;-65